sensor_id;sensor_type;location;lat;lon;timestamp;P1;durP1;ratioP1;P2;durP2;ratioP2
21503;SDS011;10913;51.992;9.228;2024-03-23T00:55:50;11.65;;;5.88;;
21503;SDS011;10913;51.992;9.228;2024-03-23T00:58:15;15.50;;;5.78;;
21503;SDS011;10913;51.992;9.228;2024-03-23T01:00:40;13.80;;;5.72;;
21503;SDS011;10913;51.992;9.228;2024-03-23T01:03:06;12.00;;;5.60;;
21503;SDS011;10913;51.992;9.228;2024-03-23T01:05:31;13.25;;;5.60;;
21503;SDS011;10913;51.992;9.228;2024-03-23T01:07:56;11.52;;;4.72;;
21503;SDS011;10913;51.992;9.228;2024-03-23T01:10:22;10.75;;;5.65;;
21503;SDS011;10913;51.992;9.228;2024-03-23T01:12:47;9.63;;;4.65;;
21503;SDS011;10913;51.992;9.228;2024-03-23T01:15:12;6.78;;;4.63;;
21503;SDS011;10913;51.992;9.228;2024-03-23T01:17:38;8.27;;;4.22;;
21503;SDS011;10913;51.992;9.228;2024-03-23T01:20:03;10.50;;;4.63;;
21503;SDS011;10913;51.992;9.228;2024-03-23T01:22:29;14.38;;;6.63;;
21503;SDS011;10913;51.992;9.228;2024-03-23T01:24:54;40.17;;;21.90;;
21503;SDS011;10913;51.992;9.228;2024-03-23T01:27:19;12.80;;;7.22;;
21503;SDS011;10913;51.992;9.228;2024-03-23T01:29:45;12.77;;;5.75;;
21503;SDS011;10913;51.992;9.228;2024-03-23T01:32:10;9.93;;;4.63;;
21503;SDS011;10913;51.992;9.228;2024-03-23T01:34:36;9.88;;;4.70;;
21503;SDS011;10913;51.992;9.228;2024-03-23T01:37:01;8.55;;;3.95;;
21503;SDS011;10913;51.992;9.228;2024-03-23T01:39:26;9.50;;;4.20;;
21503;SDS011;10913;51.992;9.228;2024-03-23T01:41:52;10.60;;;4.30;;
21503;SDS011;10913;51.992;9.228;2024-03-23T01:44:17;9.52;;;3.90;;
21503;SDS011;10913;51.992;9.228;2024-03-23T01:46:42;8.73;;;3.90;;
21503;SDS011;10913;51.992;9.228;2024-03-23T01:49:09;11.23;;;4.38;;
21503;SDS011;10913;51.992;9.228;2024-03-23T01:51:35;7.22;;;3.92;;
21503;SDS011;10913;51.992;9.228;2024-03-23T01:54:01;10.57;;;4.15;;
21503;SDS011;10913;51.992;9.228;2024-03-23T01:56:28;10.98;;;4.35;;
21503;SDS011;10913;51.992;9.228;2024-03-23T01:59:04;11.82;;;4.50;;
21503;SDS011;10913;51.992;9.228;2024-03-23T02:01:30;10.07;;;4.18;;
21503;SDS011;10913;51.992;9.228;2024-03-23T02:03:56;11.30;;;4.78;;
21503;SDS011;10913;51.992;9.228;2024-03-23T02:06:21;12.43;;;4.32;;
21503;SDS011;10913;51.992;9.228;2024-03-23T02:08:48;9.77;;;4.43;;
21503;SDS011;10913;51.992;9.228;2024-03-23T02:11:13;10.77;;;3.88;;
21503;SDS011;10913;51.992;9.228;2024-03-23T02:13:39;8.40;;;3.78;;
21503;SDS011;10913;51.992;9.228;2024-03-23T02:16:05;10.65;;;3.90;;
21503;SDS011;10913;51.992;9.228;2024-03-23T02:18:30;9.20;;;5.03;;
21503;SDS011;10913;51.992;9.228;2024-03-23T02:20:56;9.82;;;3.90;;
21503;SDS011;10913;51.992;9.228;2024-03-23T02:23:21;6.68;;;3.50;;
21503;SDS011;10913;51.992;9.228;2024-03-23T02:25:47;8.38;;;3.10;;
21503;SDS011;10913;51.992;9.228;2024-03-23T02:28:12;6.95;;;3.47;;
21503;SDS011;10913;51.992;9.228;2024-03-23T02:30:38;7.20;;;3.55;;
21503;SDS011;10913;51.992;9.228;2024-03-23T02:33:03;8.32;;;3.65;;
21503;SDS011;10913;51.992;9.228;2024-03-23T02:35:29;8.32;;;4.70;;
21503;SDS011;10913;51.992;9.228;2024-03-23T02:37:54;8.57;;;4.18;;
21503;SDS011;10913;51.992;9.228;2024-03-23T02:40:22;5.15;;;3.35;;
21503;SDS011;10913;51.992;9.228;2024-03-23T02:42:51;8.20;;;3.55;;
21503;SDS011;10913;51.992;9.228;2024-03-23T02:45:17;8.80;;;3.42;;
21503;SDS011;10913;51.992;9.228;2024-03-23T02:47:42;6.47;;;3.03;;
21503;SDS011;10913;51.992;9.228;2024-03-23T02:50:08;6.43;;;2.75;;
21503;SDS011;10913;51.992;9.228;2024-03-23T02:52:34;6.88;;;3.00;;
21503;SDS011;10913;51.992;9.228;2024-03-23T02:55:00;8.43;;;2.90;;
21503;SDS011;10913;51.992;9.228;2024-03-23T02:57:27;8.93;;;3.03;;
21503;SDS011;10913;51.992;9.228;2024-03-23T02:59:52;7.90;;;2.97;;
21503;SDS011;10913;51.992;9.228;2024-03-23T03:02:18;9.13;;;4.00;;
21503;SDS011;10913;51.992;9.228;2024-03-23T03:04:43;9.23;;;4.70;;
21503;SDS011;10913;51.992;9.228;2024-03-23T03:07:08;11.80;;;4.80;;
21503;SDS011;10913;51.992;9.228;2024-03-23T03:09:34;7.68;;;4.75;;
21503;SDS011;10913;51.992;9.228;2024-03-23T03:12:00;9.68;;;4.90;;
21503;SDS011;10913;51.992;9.228;2024-03-23T03:14:28;9.98;;;5.55;;
21503;SDS011;10913;51.992;9.228;2024-03-23T03:16:54;10.50;;;5.10;;
21503;SDS011;10913;51.992;9.228;2024-03-23T03:19:19;10.57;;;4.70;;
21503;SDS011;10913;51.992;9.228;2024-03-23T03:21:44;11.77;;;4.50;;
21503;SDS011;10913;51.992;9.228;2024-03-23T03:24:10;10.65;;;4.82;;
21503;SDS011;10913;51.992;9.228;2024-03-23T03:26:35;9.52;;;4.60;;
21503;SDS011;10913;51.992;9.228;2024-03-23T03:29:02;12.15;;;4.22;;
21503;SDS011;10913;51.992;9.228;2024-03-23T03:31:27;8.43;;;4.53;;
21503;SDS011;10913;51.992;9.228;2024-03-23T03:33:53;8.73;;;4.22;;
21503;SDS011;10913;51.992;9.228;2024-03-23T03:36:18;7.90;;;3.75;;
21503;SDS011;10913;51.992;9.228;2024-03-23T03:38:44;10.52;;;4.32;;
21503;SDS011;10913;51.992;9.228;2024-03-23T03:41:09;9.13;;;4.28;;
21503;SDS011;10913;51.992;9.228;2024-03-23T03:43:35;8.40;;;4.03;;
21503;SDS011;10913;51.992;9.228;2024-03-23T03:46:00;10.55;;;4.40;;
21503;SDS011;10913;51.992;9.228;2024-03-23T03:48:26;8.68;;;4.00;;
21503;SDS011;10913;51.992;9.228;2024-03-23T03:50:52;11.38;;;4.57;;
21503;SDS011;10913;51.992;9.228;2024-03-23T03:53:18;9.43;;;4.25;;
21503;SDS011;10913;51.992;9.228;2024-03-23T03:55:44;7.65;;;3.65;;
21503;SDS011;10913;51.992;9.228;2024-03-23T03:58:09;6.18;;;3.38;;
21503;SDS011;10913;51.992;9.228;2024-03-23T04:00:34;6.05;;;3.30;;
21503;SDS011;10913;51.992;9.228;2024-03-23T04:03:00;9.55;;;3.35;;
21503;SDS011;10913;51.992;9.228;2024-03-23T04:05:26;6.18;;;3.53;;
21503;SDS011;10913;51.992;9.228;2024-03-23T04:07:51;8.95;;;3.45;;
21503;SDS011;10913;51.992;9.228;2024-03-23T04:10:17;6.03;;;3.30;;
21503;SDS011;10913;51.992;9.228;2024-03-23T04:12:43;6.05;;;2.95;;
21503;SDS011;10913;51.992;9.228;2024-03-23T04:15:09;6.47;;;3.38;;
21503;SDS011;10913;51.992;9.228;2024-03-23T04:17:35;6.53;;;3.40;;
21503;SDS011;10913;51.992;9.228;2024-03-23T04:20:01;5.75;;;3.15;;
21503;SDS011;10913;51.992;9.228;2024-03-23T04:22:27;6.88;;;3.13;;
21503;SDS011;10913;51.992;9.228;2024-03-23T04:24:53;5.30;;;2.92;;
21503;SDS011;10913;51.992;9.228;2024-03-23T04:27:19;6.35;;;2.92;;
21503;SDS011;10913;51.992;9.228;2024-03-23T04:29:48;5.55;;;2.70;;
21503;SDS011;10913;51.992;9.228;2024-03-23T04:32:17;7.43;;;2.90;;
21503;SDS011;10913;51.992;9.228;2024-03-23T04:34:43;8.00;;;3.45;;
21503;SDS011;10913;51.992;9.228;2024-03-23T04:37:08;4.65;;;2.72;;
21503;SDS011;10913;51.992;9.228;2024-03-23T04:39:35;7.07;;;2.85;;
21503;SDS011;10913;51.992;9.228;2024-03-23T04:42:01;7.15;;;2.83;;
21503;SDS011;10913;51.992;9.228;2024-03-23T04:44:27;6.43;;;2.92;;
21503;SDS011;10913;51.992;9.228;2024-03-23T04:46:53;7.18;;;3.15;;
21503;SDS011;10913;51.992;9.228;2024-03-23T04:49:18;5.82;;;2.90;;
21503;SDS011;10913;51.992;9.228;2024-03-23T04:51:44;5.53;;;2.75;;
21503;SDS011;10913;51.992;9.228;2024-03-23T04:54:14;7.97;;;2.90;;
21503;SDS011;10913;51.992;9.228;2024-03-23T04:56:40;6.88;;;2.83;;
21503;SDS011;10913;51.992;9.228;2024-03-23T04:59:05;5.75;;;2.83;;
21503;SDS011;10913;51.992;9.228;2024-03-23T05:01:33;8.65;;;3.17;;
21503;SDS011;10913;51.992;9.228;2024-03-23T05:03:59;5.78;;;2.95;;
21503;SDS011;10913;51.992;9.228;2024-03-23T05:06:24;6.95;;;2.70;;
21503;SDS011;10913;51.992;9.228;2024-03-23T05:08:53;5.18;;;2.70;;
21503;SDS011;10913;51.992;9.228;2024-03-23T05:11:19;6.75;;;2.50;;
21503;SDS011;10913;51.992;9.228;2024-03-23T05:13:45;5.97;;;2.30;;
21503;SDS011;10913;51.992;9.228;2024-03-23T05:16:11;4.80;;;2.30;;
21503;SDS011;10913;51.992;9.228;2024-03-23T05:18:36;6.20;;;2.55;;
21503;SDS011;10913;51.992;9.228;2024-03-23T05:21:02;7.28;;;2.78;;
21503;SDS011;10913;51.992;9.228;2024-03-23T05:23:28;5.68;;;2.40;;
21503;SDS011;10913;51.992;9.228;2024-03-23T05:25:54;7.10;;;2.90;;
21503;SDS011;10913;51.992;9.228;2024-03-23T05:28:20;5.07;;;2.40;;
21503;SDS011;10913;51.992;9.228;2024-03-23T05:30:55;6.55;;;2.60;;
21503;SDS011;10913;51.992;9.228;2024-03-23T05:33:21;4.53;;;2.13;;
21503;SDS011;10913;51.992;9.228;2024-03-23T05:35:59;4.40;;;2.17;;
21503;SDS011;10913;51.992;9.228;2024-03-23T05:38:26;5.97;;;2.20;;
21503;SDS011;10913;51.992;9.228;2024-03-23T05:41:02;4.63;;;2.10;;
21503;SDS011;10913;51.992;9.228;2024-03-23T05:45:57;2.72;;;1.85;;
21503;SDS011;10913;51.992;9.228;2024-03-23T05:48:23;3.72;;;2.38;;
21503;SDS011;10913;51.992;9.228;2024-03-23T05:50:49;5.30;;;2.35;;
21503;SDS011;10913;51.992;9.228;2024-03-23T05:53:15;4.03;;;1.80;;
21503;SDS011;10913;51.992;9.228;2024-03-23T05:55:41;4.15;;;2.55;;
21503;SDS011;10913;51.992;9.228;2024-03-23T05:58:06;6.70;;;2.72;;
21503;SDS011;10913;51.992;9.228;2024-03-23T06:00:32;4.00;;;2.55;;
21503;SDS011;10913;51.992;9.228;2024-03-23T06:02:57;7.00;;;2.63;;
21503;SDS011;10913;51.992;9.228;2024-03-23T06:05:23;4.60;;;2.42;;
21503;SDS011;10913;51.992;9.228;2024-03-23T06:07:51;5.63;;;2.50;;
21503;SDS011;10913;51.992;9.228;2024-03-23T06:10:17;6.38;;;3.08;;
21503;SDS011;10913;51.992;9.228;2024-03-23T06:12:42;6.80;;;2.92;;
21503;SDS011;10913;51.992;9.228;2024-03-23T06:15:08;5.47;;;2.60;;
21503;SDS011;10913;51.992;9.228;2024-03-23T06:17:38;4.80;;;2.78;;
21503;SDS011;10913;51.992;9.228;2024-03-23T06:20:04;7.82;;;3.15;;
21503;SDS011;10913;51.992;9.228;2024-03-23T06:22:31;5.63;;;2.72;;
21503;SDS011;10913;51.992;9.228;2024-03-23T06:24:57;6.07;;;3.13;;
21503;SDS011;10913;51.992;9.228;2024-03-23T06:27:22;6.90;;;3.28;;
21503;SDS011;10913;51.992;9.228;2024-03-23T06:29:48;6.55;;;2.70;;
21503;SDS011;10913;51.992;9.228;2024-03-23T06:32:13;6.18;;;3.00;;
21503;SDS011;10913;51.992;9.228;2024-03-23T06:34:41;6.20;;;2.85;;
21503;SDS011;10913;51.992;9.228;2024-03-23T06:37:06;8.02;;;3.20;;
21503;SDS011;10913;51.992;9.228;2024-03-23T06:39:32;7.07;;;2.97;;
21503;SDS011;10913;51.992;9.228;2024-03-23T06:41:57;8.63;;;2.97;;
21503;SDS011;10913;51.992;9.228;2024-03-23T06:44:23;8.32;;;2.88;;
21503;SDS011;10913;51.992;9.228;2024-03-23T06:46:48;9.50;;;2.97;;
21503;SDS011;10913;51.992;9.228;2024-03-23T06:49:14;8.07;;;2.75;;
21503;SDS011;10913;51.992;9.228;2024-03-23T06:51:40;5.60;;;2.50;;
21503;SDS011;10913;51.992;9.228;2024-03-23T06:54:06;7.22;;;2.90;;
21503;SDS011;10913;51.992;9.228;2024-03-23T06:56:31;6.55;;;2.90;;
21503;SDS011;10913;51.992;9.228;2024-03-23T06:58:57;22.35;;;12.30;;
21503;SDS011;10913;51.992;9.228;2024-03-23T07:01:23;10.88;;;7.32;;
21503;SDS011;10913;51.992;9.228;2024-03-23T07:03:48;13.63;;;8.48;;
21503;SDS011;10913;51.992;9.228;2024-03-23T07:06:14;8.82;;;5.00;;
21503;SDS011;10913;51.992;9.228;2024-03-23T07:08:39;9.20;;;3.63;;
21503;SDS011;10913;51.992;9.228;2024-03-23T07:11:04;6.45;;;2.80;;
21503;SDS011;10913;51.992;9.228;2024-03-23T07:13:30;5.55;;;2.47;;
21503;SDS011;10913;51.992;9.228;2024-03-23T07:15:56;6.05;;;2.53;;
21503;SDS011;10913;51.992;9.228;2024-03-23T07:18:22;8.88;;;3.03;;
21503;SDS011;10913;51.992;9.228;2024-03-23T07:23:19;6.47;;;2.50;;
21503;SDS011;10913;51.992;9.228;2024-03-23T07:25:44;8.63;;;2.92;;
21503;SDS011;10913;51.992;9.228;2024-03-23T07:28:10;10.65;;;3.08;;
21503;SDS011;10913;51.992;9.228;2024-03-23T07:30:35;6.32;;;2.60;;
21503;SDS011;10913;51.992;9.228;2024-03-23T07:33:00;10.40;;;2.90;;
21503;SDS011;10913;51.992;9.228;2024-03-23T07:35:26;9.40;;;2.75;;
21503;SDS011;10913;51.992;9.228;2024-03-23T07:37:51;8.07;;;3.10;;
21503;SDS011;10913;51.992;9.228;2024-03-23T07:40:16;8.57;;;3.00;;
21503;SDS011;10913;51.992;9.228;2024-03-23T07:42:42;7.28;;;2.83;;
21503;SDS011;10913;51.992;9.228;2024-03-23T07:45:07;8.70;;;3.38;;
21503;SDS011;10913;51.992;9.228;2024-03-23T07:47:34;12.88;;;4.90;;
21503;SDS011;10913;51.992;9.228;2024-03-23T07:49:59;13.18;;;4.45;;
21503;SDS011;10913;51.992;9.228;2024-03-23T07:52:27;9.95;;;4.13;;
21503;SDS011;10913;51.992;9.228;2024-03-23T07:54:54;9.43;;;3.95;;
21503;SDS011;10913;51.992;9.228;2024-03-23T07:57:19;9.73;;;4.25;;
21503;SDS011;10913;51.992;9.228;2024-03-23T07:59:44;11.55;;;4.85;;
21503;SDS011;10913;51.992;9.228;2024-03-23T08:02:10;11.80;;;4.80;;
21503;SDS011;10913;51.992;9.228;2024-03-23T08:04:35;12.20;;;4.57;;
21503;SDS011;10913;51.992;9.228;2024-03-23T08:07:01;11.38;;;4.18;;
21503;SDS011;10913;51.992;9.228;2024-03-23T08:09:29;10.25;;;4.90;;
21503;SDS011;10913;51.992;9.228;2024-03-23T08:11:54;12.70;;;4.82;;
21503;SDS011;10913;51.992;9.228;2024-03-23T08:14:20;15.35;;;5.35;;
21503;SDS011;10913;51.992;9.228;2024-03-23T08:16:45;17.77;;;5.60;;
21503;SDS011;10913;51.992;9.228;2024-03-23T08:19:13;13.27;;;5.70;;
21503;SDS011;10913;51.992;9.228;2024-03-23T08:21:39;15.48;;;5.65;;
21503;SDS011;10913;51.992;9.228;2024-03-23T08:24:05;13.82;;;5.90;;
21503;SDS011;10913;51.992;9.228;2024-03-23T08:26:30;11.77;;;5.82;;
21503;SDS011;10913;51.992;9.228;2024-03-23T08:28:56;13.60;;;5.50;;
21503;SDS011;10913;51.992;9.228;2024-03-23T08:31:22;12.38;;;5.32;;
21503;SDS011;10913;51.992;9.228;2024-03-23T08:33:47;12.38;;;5.00;;
21503;SDS011;10913;51.992;9.228;2024-03-23T08:36:12;12.00;;;5.15;;
21503;SDS011;10913;51.992;9.228;2024-03-23T08:38:39;13.52;;;5.47;;
21503;SDS011;10913;51.992;9.228;2024-03-23T08:41:08;12.48;;;5.57;;
21503;SDS011;10913;51.992;9.228;2024-03-23T08:43:35;14.85;;;5.95;;
21503;SDS011;10913;51.992;9.228;2024-03-23T08:48:35;11.50;;;5.30;;
21503;SDS011;10913;51.992;9.228;2024-03-23T08:51:02;11.82;;;5.05;;
21503;SDS011;10913;51.992;9.228;2024-03-23T08:53:29;12.77;;;5.30;;
21503;SDS011;10913;51.992;9.228;2024-03-23T08:55:55;13.60;;;5.03;;
21503;SDS011;10913;51.992;9.228;2024-03-23T08:58:24;11.73;;;5.50;;
21503;SDS011;10913;51.992;9.228;2024-03-23T09:00:54;15.88;;;6.50;;
21503;SDS011;10913;51.992;9.228;2024-03-23T09:03:22;14.85;;;5.85;;
21503;SDS011;10913;51.992;9.228;2024-03-23T09:05:53;13.07;;;5.57;;
21503;SDS011;10913;51.992;9.228;2024-03-23T09:08:20;11.10;;;5.13;;
21503;SDS011;10913;51.992;9.228;2024-03-23T09:10:45;11.40;;;5.18;;
21503;SDS011;10913;51.992;9.228;2024-03-23T09:13:12;13.38;;;5.22;;
21503;SDS011;10913;51.992;9.228;2024-03-23T09:15:44;13.55;;;5.22;;
21503;SDS011;10913;51.992;9.228;2024-03-23T09:18:11;12.27;;;5.10;;
21503;SDS011;10913;51.992;9.228;2024-03-23T09:20:36;11.88;;;4.80;;
21503;SDS011;10913;51.992;9.228;2024-03-23T09:23:02;9.63;;;4.50;;
21503;SDS011;10913;51.992;9.228;2024-03-23T09:25:27;10.15;;;3.95;;
21503;SDS011;10913;51.992;9.228;2024-03-23T09:27:52;12.10;;;4.50;;
21503;SDS011;10913;51.992;9.228;2024-03-23T09:30:18;13.52;;;4.40;;
21503;SDS011;10913;51.992;9.228;2024-03-23T09:32:44;13.38;;;4.47;;
21503;SDS011;10913;51.992;9.228;2024-03-23T09:35:10;13.02;;;4.72;;
21503;SDS011;10913;51.992;9.228;2024-03-23T09:37:36;11.52;;;4.57;;
21503;SDS011;10913;51.992;9.228;2024-03-23T09:40:05;10.43;;;4.38;;
21503;SDS011;10913;51.992;9.228;2024-03-23T09:42:40;9.90;;;4.53;;
21503;SDS011;10913;51.992;9.228;2024-03-23T09:45:13;10.65;;;4.13;;
21503;SDS011;10913;51.992;9.228;2024-03-23T09:47:43;11.20;;;4.47;;
21503;SDS011;10913;51.992;9.228;2024-03-23T09:50:09;14.88;;;5.00;;
21503;SDS011;10913;51.992;9.228;2024-03-23T09:52:34;12.77;;;4.90;;
21503;SDS011;10913;51.992;9.228;2024-03-23T09:55:00;10.23;;;4.70;;
21503;SDS011;10913;51.992;9.228;2024-03-23T09:57:25;9.07;;;3.78;;
21503;SDS011;10913;51.992;9.228;2024-03-23T09:59:51;10.20;;;4.43;;
21503;SDS011;10913;51.992;9.228;2024-03-23T10:02:16;10.30;;;4.78;;
21503;SDS011;10913;51.992;9.228;2024-03-23T10:04:42;11.15;;;4.32;;
21503;SDS011;10913;51.992;9.228;2024-03-23T10:07:21;11.35;;;4.60;;
21503;SDS011;10913;51.992;9.228;2024-03-23T10:09:49;11.05;;;4.32;;
21503;SDS011;10913;51.992;9.228;2024-03-23T10:12:19;11.40;;;4.20;;
21503;SDS011;10913;51.992;9.228;2024-03-23T10:14:45;8.45;;;3.92;;
21503;SDS011;10913;51.992;9.228;2024-03-23T10:19:48;10.68;;;4.18;;
21503;SDS011;10913;51.992;9.228;2024-03-23T10:24:45;6.82;;;3.20;;
21503;SDS011;10913;51.992;9.228;2024-03-23T10:27:17;8.48;;;3.60;;
21503;SDS011;10913;51.992;9.228;2024-03-23T10:29:44;9.30;;;3.63;;
21503;SDS011;10913;51.992;9.228;2024-03-23T10:32:11;8.90;;;3.50;;
21503;SDS011;10913;51.992;9.228;2024-03-23T10:34:38;6.18;;;3.40;;
21503;SDS011;10913;51.992;9.228;2024-03-23T10:37:04;7.32;;;3.00;;
21503;SDS011;10913;51.992;9.228;2024-03-23T10:39:32;7.75;;;2.95;;
21503;SDS011;10913;51.992;9.228;2024-03-23T10:42:00;7.13;;;3.60;;
21503;SDS011;10913;51.992;9.228;2024-03-23T10:44:27;8.65;;;3.40;;
21503;SDS011;10913;51.992;9.228;2024-03-23T10:46:54;7.35;;;2.85;;
21503;SDS011;10913;51.992;9.228;2024-03-23T10:49:31;9.65;;;3.40;;
21503;SDS011;10913;51.992;9.228;2024-03-23T10:52:01;6.38;;;2.97;;
21503;SDS011;10913;51.992;9.228;2024-03-23T10:54:27;6.47;;;2.70;;
21503;SDS011;10913;51.992;9.228;2024-03-23T10:56:59;7.72;;;2.80;;
21503;SDS011;10913;51.992;9.228;2024-03-23T10:59:30;6.70;;;2.72;;
21503;SDS011;10913;51.992;9.228;2024-03-23T11:01:57;5.50;;;2.45;;
21503;SDS011;10913;51.992;9.228;2024-03-23T11:04:34;7.57;;;2.90;;
21503;SDS011;10913;51.992;9.228;2024-03-23T11:09:50;5.28;;;2.65;;
21503;SDS011;10913;51.992;9.228;2024-03-23T11:14:59;10.23;;;4.07;;
21503;SDS011;10913;51.992;9.228;2024-03-23T11:17:27;7.03;;;2.70;;
21503;SDS011;10913;51.992;9.228;2024-03-23T11:20:02;6.35;;;2.55;;
21503;SDS011;10913;51.992;9.228;2024-03-23T11:25:20;7.68;;;2.80;;
21503;SDS011;10913;51.992;9.228;2024-03-23T11:27:53;8.10;;;2.90;;
21503;SDS011;10913;51.992;9.228;2024-03-23T11:30:22;7.13;;;2.90;;
21503;SDS011;10913;51.992;9.228;2024-03-23T11:32:52;5.53;;;2.38;;
21503;SDS011;10913;51.992;9.228;2024-03-23T11:38:13;9.18;;;3.33;;
21503;SDS011;10913;51.992;9.228;2024-03-23T11:43:06;5.72;;;2.97;;
21503;SDS011;10913;51.992;9.228;2024-03-23T11:45:40;5.82;;;2.38;;
21503;SDS011;10913;51.992;9.228;2024-03-23T11:48:11;5.72;;;2.13;;
21503;SDS011;10913;51.992;9.228;2024-03-23T11:50:47;5.78;;;2.20;;
21503;SDS011;10913;51.992;9.228;2024-03-23T11:53:15;3.63;;;2.20;;
21503;SDS011;10913;51.992;9.228;2024-03-23T11:55:51;5.20;;;2.05;;
21503;SDS011;10913;51.992;9.228;2024-03-23T11:58:18;6.65;;;2.05;;
21503;SDS011;10913;51.992;9.228;2024-03-23T12:03:30;5.75;;;2.40;;
21503;SDS011;10913;51.992;9.228;2024-03-23T12:05:58;5.68;;;1.98;;
21503;SDS011;10913;51.992;9.228;2024-03-23T12:10:51;4.68;;;2.00;;
21503;SDS011;10913;51.992;9.228;2024-03-23T12:13:18;6.30;;;2.22;;
21503;SDS011;10913;51.992;9.228;2024-03-23T12:15:47;4.22;;;2.15;;
21503;SDS011;10913;51.992;9.228;2024-03-23T12:18:14;7.50;;;2.30;;
21503;SDS011;10913;51.992;9.228;2024-03-23T12:20:40;4.22;;;1.88;;
21503;SDS011;10913;51.992;9.228;2024-03-23T12:23:10;3.67;;;1.98;;
21503;SDS011;10913;51.992;9.228;2024-03-23T12:25:37;3.42;;;1.30;;
21503;SDS011;10913;51.992;9.228;2024-03-23T12:28:06;3.22;;;1.00;;
21503;SDS011;10913;51.992;9.228;2024-03-23T12:30:33;1.92;;;1.02;;
21503;SDS011;10913;51.992;9.228;2024-03-23T12:32:59;2.70;;;1.40;;
21503;SDS011;10913;51.992;9.228;2024-03-23T12:35:24;2.67;;;1.52;;
21503;SDS011;10913;51.992;9.228;2024-03-23T12:37:49;3.53;;;1.30;;
21503;SDS011;10913;51.992;9.228;2024-03-23T12:40:15;3.05;;;1.42;;
21503;SDS011;10913;51.992;9.228;2024-03-23T12:42:40;3.28;;;1.40;;
21503;SDS011;10913;51.992;9.228;2024-03-23T12:45:05;1.85;;;1.20;;
21503;SDS011;10913;51.992;9.228;2024-03-23T12:47:31;5.78;;;2.00;;
21503;SDS011;10913;51.992;9.228;2024-03-23T12:49:57;4.22;;;1.80;;
21503;SDS011;10913;51.992;9.228;2024-03-23T12:52:22;2.58;;;1.35;;
21503;SDS011;10913;51.992;9.228;2024-03-23T12:54:51;3.45;;;1.50;;
21503;SDS011;10913;51.992;9.228;2024-03-23T12:57:16;4.05;;;1.70;;
21503;SDS011;10913;51.992;9.228;2024-03-23T12:59:42;3.30;;;1.35;;
21503;SDS011;10913;51.992;9.228;2024-03-23T13:02:07;3.35;;;1.67;;
21503;SDS011;10913;51.992;9.228;2024-03-23T13:04:32;3.25;;;1.50;;
21503;SDS011;10913;51.992;9.228;2024-03-23T13:06:58;2.35;;;1.83;;
21503;SDS011;10913;51.992;9.228;2024-03-23T13:09:23;4.18;;;1.90;;
21503;SDS011;10913;51.992;9.228;2024-03-23T13:11:48;5.22;;;2.20;;
21503;SDS011;10913;51.992;9.228;2024-03-23T13:14:14;2.85;;;1.95;;
21503;SDS011;10913;51.992;9.228;2024-03-23T13:16:41;4.38;;;1.80;;
21503;SDS011;10913;51.992;9.228;2024-03-23T13:19:07;3.92;;;2.60;;
21503;SDS011;10913;51.992;9.228;2024-03-23T13:21:32;5.45;;;2.67;;
21503;SDS011;10913;51.992;9.228;2024-03-23T13:23:57;5.03;;;2.50;;
21503;SDS011;10913;51.992;9.228;2024-03-23T13:26:23;5.30;;;2.60;;
21503;SDS011;10913;51.992;9.228;2024-03-23T13:28:48;7.50;;;2.95;;
21503;SDS011;10913;51.992;9.228;2024-03-23T13:31:13;5.80;;;2.75;;
21503;SDS011;10913;51.992;9.228;2024-03-23T13:33:39;4.50;;;2.58;;
21503;SDS011;10913;51.992;9.228;2024-03-23T13:36:05;4.85;;;2.35;;
21503;SDS011;10913;51.992;9.228;2024-03-23T13:38:30;4.70;;;2.50;;
21503;SDS011;10913;51.992;9.228;2024-03-23T13:40:56;3.55;;;2.13;;
21503;SDS011;10913;51.992;9.228;2024-03-23T13:43:22;6.53;;;2.95;;
21503;SDS011;10913;51.992;9.228;2024-03-23T13:45:50;4.72;;;1.73;;
21503;SDS011;10913;51.992;9.228;2024-03-23T13:48:19;3.10;;;1.90;;
21503;SDS011;10913;51.992;9.228;2024-03-23T13:50:45;6.18;;;3.72;;
21503;SDS011;10913;51.992;9.228;2024-03-23T13:53:13;3.60;;;1.75;;
21503;SDS011;10913;51.992;9.228;2024-03-23T13:55:45;2.58;;;1.50;;
21503;SDS011;10913;51.992;9.228;2024-03-23T13:58:11;6.82;;;3.70;;
21503;SDS011;10913;51.992;9.228;2024-03-23T14:00:37;3.50;;;1.80;;
21503;SDS011;10913;51.992;9.228;2024-03-23T14:03:03;3.53;;;1.95;;
21503;SDS011;10913;51.992;9.228;2024-03-23T14:05:28;4.88;;;2.00;;
21503;SDS011;10913;51.992;9.228;2024-03-23T14:07:53;5.05;;;2.17;;
21503;SDS011;10913;51.992;9.228;2024-03-23T14:10:18;4.90;;;2.72;;
21503;SDS011;10913;51.992;9.228;2024-03-23T14:12:44;4.03;;;2.15;;
21503;SDS011;10913;51.992;9.228;2024-03-23T14:15:09;2.60;;;1.92;;
21503;SDS011;10913;51.992;9.228;2024-03-23T14:17:34;2.55;;;2.10;;
21503;SDS011;10913;51.992;9.228;2024-03-23T14:20:00;3.13;;;1.67;;
21503;SDS011;10913;51.992;9.228;2024-03-23T14:22:29;2.50;;;1.17;;
21503;SDS011;10913;51.992;9.228;2024-03-23T14:24:54;2.83;;;1.85;;
21503;SDS011;10913;51.992;9.228;2024-03-23T14:27:19;2.33;;;1.30;;
21503;SDS011;10913;51.992;9.228;2024-03-23T14:29:46;2.92;;;1.17;;
21503;SDS011;10913;51.992;9.228;2024-03-23T14:32:12;2.85;;;1.80;;
21503;SDS011;10913;51.992;9.228;2024-03-23T14:34:37;2.97;;;1.20;;
21503;SDS011;10913;51.992;9.228;2024-03-23T14:37:03;3.25;;;2.70;;
21503;SDS011;10913;51.992;9.228;2024-03-23T14:39:29;2.83;;;1.45;;
21503;SDS011;10913;51.992;9.228;2024-03-23T14:41:55;2.15;;;1.13;;
21503;SDS011;10913;51.992;9.228;2024-03-23T14:44:21;2.13;;;1.70;;
21503;SDS011;10913;51.992;9.228;2024-03-23T14:46:47;3.10;;;1.42;;
21503;SDS011;10913;51.992;9.228;2024-03-23T14:49:15;2.13;;;1.10;;
21503;SDS011;10913;51.992;9.228;2024-03-23T14:51:44;2.72;;;1.25;;
21503;SDS011;10913;51.992;9.228;2024-03-23T14:54:09;2.25;;;1.13;;
21503;SDS011;10913;51.992;9.228;2024-03-23T14:56:35;3.70;;;1.15;;
21503;SDS011;10913;51.992;9.228;2024-03-23T14:59:00;3.22;;;1.30;;
21503;SDS011;10913;51.992;9.228;2024-03-23T15:01:26;1.33;;;1.10;;
21503;SDS011;10913;51.992;9.228;2024-03-23T15:03:51;3.15;;;1.13;;
21503;SDS011;10913;51.992;9.228;2024-03-23T15:06:18;2.72;;;1.23;;
21503;SDS011;10913;51.992;9.228;2024-03-23T15:08:44;1.80;;;1.10;;
21503;SDS011;10913;51.992;9.228;2024-03-23T15:11:09;1.95;;;1.30;;
21503;SDS011;10913;51.992;9.228;2024-03-23T15:13:35;9.35;;;6.05;;
21503;SDS011;10913;51.992;9.228;2024-03-23T15:16:01;3.03;;;1.50;;
21503;SDS011;10913;51.992;9.228;2024-03-23T15:18:28;2.75;;;1.30;;
21503;SDS011;10913;51.992;9.228;2024-03-23T15:20:55;2.30;;;1.35;;
21503;SDS011;10913;51.992;9.228;2024-03-23T15:23:21;3.10;;;1.30;;
21503;SDS011;10913;51.992;9.228;2024-03-23T15:25:56;1.88;;;1.17;;
21503;SDS011;10913;51.992;9.228;2024-03-23T15:28:23;2.05;;;1.00;;
21503;SDS011;10913;51.992;9.228;2024-03-23T15:30:48;2.35;;;1.10;;
21503;SDS011;10913;51.992;9.228;2024-03-23T15:33:14;1.63;;;1.20;;
21503;SDS011;10913;51.992;9.228;2024-03-23T15:35:39;2.13;;;1.05;;
21503;SDS011;10913;51.992;9.228;2024-03-23T15:38:05;1.88;;;0.90;;
21503;SDS011;10913;51.992;9.228;2024-03-23T15:40:30;2.92;;;1.10;;
21503;SDS011;10913;51.992;9.228;2024-03-23T15:42:55;2.25;;;1.20;;
21503;SDS011;10913;51.992;9.228;2024-03-23T15:45:21;2.60;;;1.23;;
21503;SDS011;10913;51.992;9.228;2024-03-23T15:47:47;2.97;;;1.45;;
21503;SDS011;10913;51.992;9.228;2024-03-23T15:50:12;3.22;;;1.52;;
21503;SDS011;10913;51.992;9.228;2024-03-23T15:52:37;2.42;;;1.23;;
21503;SDS011;10913;51.992;9.228;2024-03-23T15:55:03;2.42;;;1.30;;
21503;SDS011;10913;51.992;9.228;2024-03-23T15:57:33;2.55;;;1.42;;
21503;SDS011;10913;51.992;9.228;2024-03-23T15:59:59;2.50;;;1.27;;
21503;SDS011;10913;51.992;9.228;2024-03-23T16:02:25;2.22;;;1.10;;
21503;SDS011;10913;51.992;9.228;2024-03-23T16:04:50;2.17;;;1.10;;